»·PEaware :: SWA545 KBUR-KSMF

SWA545 :: KBUR-KSMF

FLIGHT INFORMATION

Flight Status: Arrived
Operator:
Southwest Airlines
More flights by this operator :: More flights under this callsign
Pilot: Ryan C. (15122)
Aircraft: BOEING 737-800
(B738)
More flights by this aircraft type
Origin: KBUR Bob Hope-Burbank
United States
Destination: KSMF Sacramento Intl
United States
More flights between these airports :: More routes between these airports
Route: OROSZ2 CSTRO NURAY SUUTR2
File this flight plan on PilotEdge
Remarks:
Altitude:
(Current/Filed)
32,000ft
Speed:
(Current/Filed)
450kts
Departed: 28-Sep-18 09:37 AM
Arrived: 28-Sep-18 10:40 AM
Distance/Time
Traveled:
312nm/1:03
Distance/Time
To Go:
Arrived

Flight Plot

Page will automatically refresh every two minutes.

Flight plan parsing failed; only flown route is shown


Map Options




Map Legend


Flown Route
Filed Route
Departure Airport
Arrival Airport
Navaid (VOR, NDB)
Fix

Horizontal Profiles

Position Reports

Time Latitude Longitude Heading Altitude Ground
Speed
28-Sep-18 09:17 34.196054 -118.354851 125 705ft 0kts
28-Sep-18 09:18 34.196054 -118.354851 125 705ft 0kts
28-Sep-18 09:19 34.196054 -118.354851 125 705ft 0kts
28-Sep-18 09:20 34.196054 -118.354851 125 705ft 0kts
28-Sep-18 09:21 34.196054 -118.354851 125 705ft 0kts
28-Sep-18 09:22 34.196054 -118.354851 125 705ft 0kts
28-Sep-18 09:23 34.196054 -118.354851 125 705ft 0kts
28-Sep-18 09:24 34.196054 -118.354851 125 705ft 0kts
28-Sep-18 09:25 34.196054 -118.354851 125 705ft 0kts
28-Sep-18 09:26 34.196054 -118.354851 125 705ft 0kts
28-Sep-18 09:27 34.196054 -118.354851 125 705ft 0kts
28-Sep-18 09:28 34.196105 -118.355021 85 705ft 2kts
28-Sep-18 09:29 34.195842 -118.355289 352 705ft 4kts
28-Sep-18 09:30 34.196531 -118.355453 349 707ft 0kts
28-Sep-18 09:31 34.196531 -118.355453 349 707ft 0kts
28-Sep-18 09:32 34.196531 -118.355453 349 707ft 0kts
28-Sep-18 09:33 34.196943 -118.355553 1 708ft 6kts
28-Sep-18 09:34 34.199376 -118.355521 347 713ft 11kts
28-Sep-18 09:35 34.202599 -118.356415 347 726ft 13kts
28-Sep-18 09:36 34.206841 -118.357562 347 745ft 16kts
28-Sep-18 09:37 34.209952 -118.358432 347 759ft 12kts
28-Sep-18 09:38 34.212048 -118.359644 304 769ft 10kts
28-Sep-18 09:39 34.205585 -118.358602 167 742ft 121kts
28-Sep-18 09:40 34.162907 -118.372872 227 2505ft 232kts
28-Sep-18 09:41 34.113856 -118.437400 227 5942ft 276kts
28-Sep-18 09:42 34.078033 -118.517730 275 8012ft 287kts
28-Sep-18 09:43 34.130406 -118.575852 347 9564ft 284kts
28-Sep-18 09:44 34.210351 -118.598646 346 12287ft 306kts
28-Sep-18 09:45 34.295670 -118.622939 346 15165ft 332kts
28-Sep-18 09:46 34.385888 -118.651020 335 18122ft 354kts
28-Sep-18 09:47 34.479664 -118.684153 349 20897ft 375kts
28-Sep-18 09:48 34.584262 -118.704779 349 23504ft 391kts
28-Sep-18 09:49 34.693308 -118.726237 347 25906ft 406kts
28-Sep-18 09:50 34.795811 -118.783841 328 28156ft 414kts
28-Sep-18 09:51 34.896964 -118.853258 328 30427ft 419kts
28-Sep-18 09:52 34.997630 -118.922578 327 32028ft 426kts
28-Sep-18 09:53 35.103631 -118.995899 327 31960ft 459kts
28-Sep-18 09:54 35.214250 -119.072555 327 31924ft 463kts
28-Sep-18 09:55 35.325804 -119.150111 327 31925ft 462kts
28-Sep-18 09:56 35.437129 -119.227576 329 31925ft 463kts
28-Sep-18 09:57 35.559441 -119.280277 339 31925ft 467kts
28-Sep-18 09:58 35.682208 -119.329359 339 31926ft 467kts
28-Sep-18 09:59 35.805686 -119.379107 339 31926ft 467kts
28-Sep-18 10:00 35.928767 -119.428876 339 31928ft 467kts
28-Sep-18 10:01 36.048742 -119.477554 339 31928ft 467kts
28-Sep-18 10:02 36.167568 -119.525925 339 31923ft 467kts
28-Sep-18 10:03 36.290914 -119.576308 339 31923ft 467kts
28-Sep-18 10:04 36.413572 -119.626575 339 31923ft 467kts
28-Sep-18 10:05 36.533408 -119.675834 338 31927ft 466kts
28-Sep-18 10:06 36.649705 -119.743492 324 31926ft 461kts
28-Sep-18 10:07 36.757398 -119.827910 324 31924ft 460kts
28-Sep-18 10:08 36.865545 -119.913000 324 31925ft 460kts
28-Sep-18 10:09 36.973565 -119.998261 324 31928ft 460kts
28-Sep-18 10:10 37.079374 -120.082019 324 31114ft 448kts
28-Sep-18 10:11 37.166163 -120.150973 324 30297ft 456kts
28-Sep-18 10:12 37.273610 -120.236608 324 29289ft 459kts
28-Sep-18 10:13 37.381815 -120.323176 324 26895ft 461kts
28-Sep-18 10:14 37.481794 -120.404581 319 24185ft 404kts
28-Sep-18 10:15 37.567540 -120.491695 318 21825ft 399kts
28-Sep-18 10:16 37.652493 -120.576996 319 20575ft 392kts
28-Sep-18 10:17 37.735387 -120.660259 318 19000ft 384kts
28-Sep-18 10:18 37.814935 -120.740539 318 18928ft 384kts
28-Sep-18 10:19 37.898062 -120.824731 318 18943ft 385kts
28-Sep-18 10:20 37.981465 -120.909458 318 18947ft 384kts
28-Sep-18 10:21 38.065197 -120.994786 319 17469ft 386kts
28-Sep-18 10:22 38.132528 -121.089351 307 15296ft 367kts
28-Sep-18 10:23 38.196498 -121.184177 308 13208ft 338kts
28-Sep-18 10:24 38.258189 -121.266835 313 11644ft 301kts
28-Sep-18 10:25 38.309758 -121.331728 312 10860ft 233kts
28-Sep-18 10:26 38.353650 -121.387379 311 10201ft 221kts
28-Sep-18 10:27 38.401154 -121.447999 312 9326ft 275kts
28-Sep-18 10:28 38.457051 -121.519215 313 8125ft 286kts
28-Sep-18 10:29 38.516596 -121.584099 319 7014ft 277kts
28-Sep-18 10:30 38.575720 -121.643591 320 5937ft 265kts
28-Sep-18 10:31 38.636576 -121.686403 355 4989ft 247kts
28-Sep-18 10:32 38.703746 -121.693458 356 4107ft 245kts
28-Sep-18 10:33 38.769296 -121.703189 353 3118ft 223kts
28-Sep-18 10:34 38.826749 -121.712348 353 3002ft 203kts
28-Sep-18 10:35 38.882155 -121.716929 25 2995ft 197kts
28-Sep-18 10:36 38.897687 -121.658812 103 2991ft 181kts
28-Sep-18 10:37 38.863619 -121.615116 143 2438ft 174kts
28-Sep-18 10:38 38.830064 -121.585842 157 2042ft 135kts
28-Sep-18 10:39 38.794404 -121.579672 180 1749ft 130kts
28-Sep-18 10:40 38.764077 -121.579105 180 1205ft 129kts
28-Sep-18 10:41 38.729641 -121.579665 179 520ft 123kts
28-Sep-18 10:42 38.697979 -121.580221 180 24ft 27kts
28-Sep-18 10:43 38.696836 -121.582496 264 26ft 5kts
28-Sep-18 10:44 38.696174 -121.586872 270 27ft 18kts
28-Sep-18 10:45 38.696961 -121.591641 270 27ft 16kts
28-Sep-18 10:46 38.696731 -121.595883 204 27ft 9kts
28-Sep-18 10:47 38.695992 -121.595343 115 27ft 0kts
28-Sep-18 10:48 38.695992 -121.595343 115 27ft 0kts
28-Sep-18 10:49 38.695992 -121.595343 115 27ft 0kts
28-Sep-18 10:50 38.695992 -121.595343 115 27ft 0kts
28-Sep-18 10:51 38.695992 -121.595343 115 27ft 0kts
28-Sep-18 10:52 38.695992 -121.595343 115 27ft 0kts
28-Sep-18 10:53 38.695992 -121.595343 115 27ft 0kts
28-Sep-18 10:54 38.695992 -121.595343 115 27ft 0kts
28-Sep-18 10:55 38.695992 -121.595343 115 27ft 0kts
28-Sep-18 10:56 38.695992 -121.595343 115 27ft 0kts
28-Sep-18 10:57 38.695992 -121.595343 115 27ft 0kts

Navigation Log

Ident Type
Flight plan parsing failed, navigation log unavailable